Terminal Aerodrome Forecast
Issued by NWS Tuscon, AZ

Home | Current Version | Previous Version | Text Only | Print | Product List | Glossary On
Versions: 1 2 3 4 5 6 7 8 9 10 11 12 13 14 15 16 17 18 19 20
000
FTUS45 KTWC 221100
TAFTUS
TAF
KTUS 221129Z 2212/2312 15005KT P6SM BKN140
     FM221500 17005KT P6SM SCT140
     FM222000 28008KT P6SM SCT090
     FM230200 22005KT P6SM SCT090 SCT140
     FM230800 16005KT P6SM FEW140=

USA.gov is the U.S. government's official web portal to all federal, state and local government web resources and services.